Time;durP1;ratioP1;P1;durP2;ratioP2;P2;SDS_P1;SDS_P2;PMS_P1;PMS_P2;Temp;Humidity;BMP_temperature;BMP_pressure;BME280_temperature;BME280_humidity;BME280_pressure;Samples;Min_cycle;Max_cycle;Signal;HPM_P1;HPM_P2
2023/09/15 00:02:20;;;;;;;26.40;14.83;;;;;;;;;;5001030;28;20351;-67
2023/09/15 00:04:46;;;;;;;26.07;16.10;;;;;;;;;;5009528;28;20422;-66
2023/09/15 00:07:14;;;;;;;28.63;16.30;;;;;;;;;;5010518;28;20512;-68
2023/09/15 00:09:39;;;;;;;28.63;15.40;;;;;;;;;;5012167;28;20459;-68
2023/09/15 00:12:04;;;;;;;27.97;16.40;;;;;;;;;;5005535;28;20128;-67
2023/09/15 00:14:30;;;;;;;31.53;17.20;;;;;;;;;;5008492;28;20041;-67
2023/09/15 00:16:55;;;;;;;31.63;16.57;;;;;;;;;;5003063;28;20064;-68
2023/09/15 00:19:22;;;;;;;31.00;17.00;;;;;;;;;;5005155;28;20364;-68
2023/09/15 00:21:47;;;;;;;28.87;16.80;;;;;;;;;;5006030;28;20057;-61
2023/09/15 00:24:12;;;;;;;26.90;17.10;;;;;;;;;;5010889;28;20433;-60
2023/09/15 00:26:38;;;;;;;28.63;17.93;;;;;;;;;;5013357;28;20036;-61
2023/09/15 00:29:04;;;;;;;28.93;16.90;;;;;;;;;;5012861;28;20079;-60
2023/09/15 00:31:29;;;;;;;27.57;16.43;;;;;;;;;;5011484;28;20037;-61
2023/09/15 00:33:55;;;;;;;28.10;17.07;;;;;;;;;;5008935;28;20030;-61
2023/09/15 00:36:20;;;;;;;27.97;15.83;;;;;;;;;;5008809;28;20034;-62
2023/09/15 00:38:45;;;;;;;29.63;15.87;;;;;;;;;;5005623;28;20026;-61
2023/09/15 00:41:11;;;;;;;28.53;15.93;;;;;;;;;;5004039;28;20157;-61
2023/09/15 00:43:38;;;;;;;26.10;14.53;;;;;;;;;;5005163;28;20034;-62
2023/09/15 00:46:03;;;;;;;22.27;14.10;;;;;;;;;;5009502;28;20050;-61
2023/09/15 00:48:28;;;;;;;28.43;15.73;;;;;;;;;;5012691;28;20069;-67
2023/09/15 00:50:54;;;;;;;26.97;14.77;;;;;;;;;;5012290;28;20383;-68
2023/09/15 00:53:20;;;;;;;27.67;17.07;;;;;;;;;;5007815;28;20022;-67
2023/09/15 00:55:46;;;;;;;29.43;17.40;;;;;;;;;;5006103;28;20036;-67
2023/09/15 00:58:12;;;;;;;34.93;18.43;;;;;;;;;;5008050;28;20459;-67
2023/09/15 01:03:41;;;;;;;38.50;19.93;;;;;;;;;;5002384;23;20101;-69
2023/09/15 01:06:07;;;;;;;35.37;19.70;;;;;;;;;;4993472;28;20038;-69
2023/09/15 01:08:34;;;;;;;32.37;19.97;;;;;;;;;;4993801;28;20049;-69
2023/09/15 01:11:03;;;;;;;32.73;18.97;;;;;;;;;;4991909;28;20352;-69
2023/09/15 01:13:28;;;;;;;29.23;17.73;;;;;;;;;;4989329;28;20034;-69
2023/09/15 01:16:05;;;;;;;29.47;17.10;;;;;;;;;;4993245;28;20434;-68
2023/09/15 01:18:49;;;;;;;26.33;15.37;;;;;;;;;;4991173;28;20026;-68
2023/09/15 01:21:35;;;;;;;21.67;14.27;;;;;;;;;;4993282;28;20030;-68
2023/09/15 01:24:18;;;;;;;22.07;13.97;;;;;;;;;;4952409;29;20038;-68
2023/09/15 01:27:02;;;;;;;22.80;13.47;;;;;;;;;;4952528;28;20046;-68
2023/09/15 01:29:52;;;;;;;20.70;12.77;;;;;;;;;;4936746;28;20117;-68
2023/09/15 01:32:18;;;;;;;23.07;12.13;;;;;;;;;;4952598;29;20360;-68
2023/09/15 01:34:48;;;;;;;22.23;11.90;;;;;;;;;;4946612;29;20039;-68
2023/09/15 01:37:13;;;;;;;16.70;11.13;;;;;;;;;;4952408;28;20023;-68
2023/09/15 01:39:38;;;;;;;16.30;11.23;;;;;;;;;;4951998;29;20504;-69
2023/09/15 01:42:04;;;;;;;17.03;10.87;;;;;;;;;;4951913;29;20047;-68
2023/09/15 01:44:29;;;;;;;16.83;10.17;;;;;;;;;;4952093;29;20035;-68
2023/09/15 01:46:54;;;;;;;17.20;10.27;;;;;;;;;;4951854;29;20083;-68
2023/09/15 01:49:20;;;;;;;15.60;10.40;;;;;;;;;;4951998;29;20031;-68
2023/09/15 01:51:47;;;;;;;16.90;10.20;;;;;;;;;;4952261;29;20031;-68
2023/09/15 01:54:13;;;;;;;16.80;10.13;;;;;;;;;;4952032;29;20023;-68
2023/09/15 01:56:38;;;;;;;15.60;10.30;;;;;;;;;;4950447;28;20027;-69
2023/09/15 01:59:04;;;;;;;17.37;10.83;;;;;;;;;;4951902;29;20467;-68
2023/09/15 02:01:29;;;;;;;14.80;9.97;;;;;;;;;;4981027;28;20045;-68
2023/09/15 02:03:54;;;;;;;17.43;10.10;;;;;;;;;;4992520;28;20050;-68
2023/09/15 02:06:19;;;;;;;16.17;9.30;;;;;;;;;;4992620;28;20378;-68
2023/09/15 02:08:45;;;;;;;19.63;10.67;;;;;;;;;;4992141;28;20026;-65
2023/09/15 02:11:10;;;;;;;15.67;10.03;;;;;;;;;;4992715;28;20034;-66
2023/09/15 02:13:36;;;;;;;15.37;10.23;;;;;;;;;;4990537;28;20494;-64
2023/09/15 02:16:01;;;;;;;16.50;9.73;;;;;;;;;;4991410;28;20026;-65
2023/09/15 02:18:26;;;;;;;16.97;9.47;;;;;;;;;;4992672;28;20113;-65
2023/09/15 02:20:55;;;;;;;15.77;9.20;;;;;;;;;;4992433;28;20030;-65
2023/09/15 02:23:21;;;;;;;17.23;9.40;;;;;;;;;;4992195;28;20411;-66
2023/09/15 02:25:46;;;;;;;18.97;9.60;;;;;;;;;;4992522;28;20034;-65
2023/09/15 02:28:11;;;;;;;20.73;9.93;;;;;;;;;;4991726;28;20031;-64
2023/09/15 02:30:37;;;;;;;18.00;9.77;;;;;;;;;;4992677;28;20029;-65
2023/09/15 02:33:02;;;;;;;15.10;9.37;;;;;;;;;;4992092;28;20052;-64
2023/09/15 02:35:28;;;;;;;18.83;9.77;;;;;;;;;;4992316;28;20022;-64
2023/09/15 02:37:53;;;;;;;17.43;10.20;;;;;;;;;;4988548;28;20029;-65
2023/09/15 02:40:20;;;;;;;17.53;9.27;;;;;;;;;;4992307;28;20042;-65
2023/09/15 02:42:45;;;;;;;16.90;9.80;;;;;;;;;;4992669;28;20105;-65
2023/09/15 02:45:10;;;;;;;17.50;10.03;;;;;;;;;;4992343;28;20526;-66
2023/09/15 02:47:35;;;;;;;15.70;9.40;;;;;;;;;;4991689;28;20022;-65
2023/09/15 02:50:01;;;;;;;17.60;10.20;;;;;;;;;;4992184;28;20057;-65
2023/09/15 02:52:26;;;;;;;17.33;10.80;;;;;;;;;;4990955;28;20018;-65
2023/09/15 02:54:51;;;;;;;20.53;11.40;;;;;;;;;;4992330;28;20025;-65
2023/09/15 02:57:16;;;;;;;24.03;11.57;;;;;;;;;;4992561;28;20030;-66
2023/09/15 02:59:42;;;;;;;25.27;12.60;;;;;;;;;;4992498;28;20030;-66
2023/09/15 03:02:12;;;;;;;23.37;13.07;;;;;;;;;;4992081;28;20030;-67
2023/09/15 03:04:38;;;;;;;26.67;12.90;;;;;;;;;;4992264;28;20096;-65
2023/09/15 03:07:03;;;;;;;26.83;12.87;;;;;;;;;;4992114;28;20061;-65
2023/09/15 03:09:31;;;;;;;23.17;13.07;;;;;;;;;;4995709;28;20034;-65
2023/09/15 03:11:56;;;;;;;23.60;12.43;;;;;;;;;;4995943;28;20018;-65
2023/09/15 03:14:21;;;;;;;22.60;12.77;;;;;;;;;;4995783;28;20022;-65
2023/09/15 03:16:46;;;;;;;23.87;13.87;;;;;;;;;;4995707;28;20029;-65
2023/09/15 03:19:12;;;;;;;25.03;13.43;;;;;;;;;;4992392;28;20030;-66
2023/09/15 03:21:38;;;;;;;24.70;12.70;;;;;;;;;;4993419;28;20030;-65
2023/09/15 03:24:04;;;;;;;24.53;13.07;;;;;;;;;;4995727;28;20014;-66
2023/09/15 03:26:29;;;;;;;23.23;13.23;;;;;;;;;;4995639;28;20036;-65
2023/09/15 03:28:55;;;;;;;21.00;12.70;;;;;;;;;;4995101;28;20022;-66
2023/09/15 03:31:20;;;;;;;21.00;12.43;;;;;;;;;;4995686;28;20022;-66
2023/09/15 03:33:45;;;;;;;22.70;12.70;;;;;;;;;;4995504;28;20018;-66
2023/09/15 03:36:10;;;;;;;25.33;13.00;;;;;;;;;;4995676;28;20106;-66
2023/09/15 03:38:35;;;;;;;20.43;12.27;;;;;;;;;;4995168;28;20038;-66
2023/09/15 03:41:01;;;;;;;21.70;12.57;;;;;;;;;;4995417;28;20054;-66
2023/09/15 03:43:26;;;;;;;23.87;13.20;;;;;;;;;;4995632;28;20129;-67
2023/09/15 03:45:52;;;;;;;28.33;14.60;;;;;;;;;;4995530;28;20068;-66
2023/09/15 03:48:17;;;;;;;24.23;12.70;;;;;;;;;;4995137;28;20471;-66
2023/09/15 03:50:42;;;;;;;23.27;14.03;;;;;;;;;;4994946;28;20390;-67
2023/09/15 03:53:08;;;;;;;25.97;14.33;;;;;;;;;;4995285;28;20021;-67
2023/09/15 03:55:33;;;;;;;22.17;13.57;;;;;;;;;;4995120;28;20049;-67
2023/09/15 03:57:58;;;;;;;21.33;11.57;;;;;;;;;;4998541;28;20033;-67
2023/09/15 04:00:23;;;;;;;17.07;11.10;;;;;;;;;;4994927;28;20034;-67
2023/09/15 04:02:51;;;;;;;20.67;12.43;;;;;;;;;;4994732;28;20104;-67
2023/09/15 04:05:17;;;;;;;19.80;12.03;;;;;;;;;;4994926;28;20022;-67
2023/09/15 04:07:42;;;;;;;23.10;12.73;;;;;;;;;;4994448;28;20029;-67
2023/09/15 04:10:08;;;;;;;26.03;13.47;;;;;;;;;;4995170;28;20364;-66
2023/09/15 04:12:36;;;;;;;21.00;13.57;;;;;;;;;;4994295;28;20102;-68
2023/09/15 04:15:01;;;;;;;25.30;14.10;;;;;;;;;;4994321;28;20022;-66
2023/09/15 04:17:26;;;;;;;26.00;13.77;;;;;;;;;;4994491;28;20525;-67
2023/09/15 04:19:52;;;;;;;23.80;14.20;;;;;;;;;;4993371;28;20062;-67
2023/09/15 04:22:17;;;;;;;26.97;14.30;;;;;;;;;;4994231;28;20030;-66
2023/09/15 04:24:42;;;;;;;23.17;13.97;;;;;;;;;;4992878;28;20674;-68
2023/09/15 04:27:07;;;;;;;27.80;15.17;;;;;;;;;;4994672;28;20037;-65
2023/09/15 04:29:33;;;;;;;28.47;15.63;;;;;;;;;;4994574;28;20034;-66
2023/09/15 04:31:58;;;;;;;32.13;14.83;;;;;;;;;;4994179;28;20018;-66
2023/09/15 04:34:24;;;;;;;29.93;15.93;;;;;;;;;;4993662;28;20034;-66
2023/09/15 04:36:49;;;;;;;29.97;16.80;;;;;;;;;;4994151;28;20026;-66
2023/09/15 04:39:14;;;;;;;32.00;17.47;;;;;;;;;;4988937;28;20479;-68
2023/09/15 04:41:40;;;;;;;30.80;17.27;;;;;;;;;;4993219;28;20045;-68
2023/09/15 04:44:05;;;;;;;35.97;17.87;;;;;;;;;;4992450;28;20030;-68
2023/09/15 04:46:30;;;;;;;32.53;17.30;;;;;;;;;;4993748;28;20030;-68
2023/09/15 04:48:55;;;;;;;34.27;17.27;;;;;;;;;;4993900;28;20468;-65
2023/09/15 04:51:21;;;;;;;35.50;18.77;;;;;;;;;;4993604;28;20384;-65
2023/09/15 04:53:46;;;;;;;36.03;19.17;;;;;;;;;;4993578;28;20406;-66
2023/09/15 04:56:11;;;;;;;39.63;19.97;;;;;;;;;;4994096;28;20113;-65
2023/09/15 04:58:36;;;;;;;39.30;19.90;;;;;;;;;;4994132;28;20061;-65
2023/09/15 05:01:03;;;;;;;38.93;19.90;;;;;;;;;;4994268;28;20089;-64
2023/09/15 05:03:29;;;;;;;39.53;19.67;;;;;;;;;;4993545;28;20086;-66
2023/09/15 05:05:55;;;;;;;38.63;20.03;;;;;;;;;;4992940;28;20061;-65
2023/09/15 05:08:20;;;;;;;34.13;18.30;;;;;;;;;;4993211;28;20393;-67
2023/09/15 05:10:47;;;;;;;36.30;19.17;;;;;;;;;;4993090;28;20022;-65
2023/09/15 05:13:12;;;;;;;40.73;18.70;;;;;;;;;;4993095;28;20085;-66
2023/09/15 05:15:37;;;;;;;34.17;18.20;;;;;;;;;;4991735;28;20031;-65
2023/09/15 05:18:03;;;;;;;32.73;17.87;;;;;;;;;;4991768;28;20177;-65
2023/09/15 05:20:28;;;;;;;31.13;17.20;;;;;;;;;;4993769;28;20033;-65
2023/09/15 05:22:53;;;;;;;26.27;14.57;;;;;;;;;;4992487;28;20025;-65
2023/09/15 05:25:18;;;;;;;28.13;13.87;;;;;;;;;;4993432;28;20529;-65
2023/09/15 05:27:44;;;;;;;21.67;13.70;;;;;;;;;;4993629;28;20391;-66
2023/09/15 05:30:09;;;;;;;23.27;13.30;;;;;;;;;;4993295;28;20026;-65
2023/09/15 05:32:34;;;;;;;28.47;14.27;;;;;;;;;;4992505;28;20113;-66
2023/09/15 05:35:00;;;;;;;24.50;14.10;;;;;;;;;;4992182;28;20022;-65
2023/09/15 05:37:25;;;;;;;27.60;14.23;;;;;;;;;;4993234;28;20186;-66
2023/09/15 05:39:50;;;;;;;26.10;14.03;;;;;;;;;;4993079;28;20113;-66
2023/09/15 05:42:15;;;;;;;26.20;12.93;;;;;;;;;;4993173;28;20026;-67
2023/09/15 05:44:41;;;;;;;20.47;12.20;;;;;;;;;;4993328;28;20031;-65
2023/09/15 05:47:06;;;;;;;22.47;12.63;;;;;;;;;;4993228;28;20025;-66
2023/09/15 05:49:31;;;;;;;17.47;11.83;;;;;;;;;;4993155;28;20015;-66
2023/09/15 05:51:56;;;;;;;18.20;11.70;;;;;;;;;;4991963;28;20057;-66
2023/09/15 05:54:23;;;;;;;15.87;10.17;;;;;;;;;;4992565;28;20108;-65
2023/09/15 05:56:48;;;;;;;13.97;8.23;;;;;;;;;;4991530;28;20029;-66
2023/09/15 05:59:14;;;;;;;11.13;6.87;;;;;;;;;;4993244;28;20395;-65
2023/09/15 06:01:39;;;;;;;8.20;5.20;;;;;;;;;;4993012;28;20479;-65
2023/09/15 06:04:05;;;;;;;8.10;4.70;;;;;;;;;;4992768;28;20521;-66
2023/09/15 06:06:30;;;;;;;8.43;4.63;;;;;;;;;;4995883;28;20030;-66
2023/09/15 06:08:56;;;;;;;8.07;4.17;;;;;;;;;;4992508;28;20030;-65
2023/09/15 06:11:21;;;;;;;9.37;4.10;;;;;;;;;;4992458;28;20019;-66
2023/09/15 06:13:47;;;;;;;9.10;4.00;;;;;;;;;;4992541;28;20029;-65
2023/09/15 06:16:12;;;;;;;6.20;3.40;;;;;;;;;;4992490;28;20026;-65
2023/09/15 06:18:37;;;;;;;6.97;3.37;;;;;;;;;;4992446;28;20026;-66
2023/09/15 06:21:03;;;;;;;8.70;4.10;;;;;;;;;;4992720;28;20018;-66
2023/09/15 06:23:30;;;;;;;6.60;3.60;;;;;;;;;;4992716;28;20129;-66
2023/09/15 06:25:55;;;;;;;8.52;3.40;;;;;;;;;;4992418;28;20022;-65
2023/09/15 06:28:20;;;;;;;6.88;3.67;;;;;;;;;;4992619;28;20010;-65
2023/09/15 06:30:46;;;;;;;8.98;3.50;;;;;;;;;;4992443;28;20483;-65
2023/09/15 06:33:11;;;;;;;10.07;3.15;;;;;;;;;;4992591;28;20352;-65
2023/09/15 06:35:36;;;;;;;7.10;2.80;;;;;;;;;;4994772;28;20018;-65
2023/09/15 06:38:02;;;;;;;6.32;3.00;;;;;;;;;;4992578;28;20112;-65
2023/09/15 06:40:28;;;;;;;7.47;2.88;;;;;;;;;;4992452;28;20552;-67
2023/09/15 06:42:53;;;;;;;10.77;3.15;;;;;;;;;;4993816;28;20026;-66
2023/09/15 06:45:18;;;;;;;6.10;2.72;;;;;;;;;;4993682;28;20026;-67
2023/09/15 06:47:43;;;;;;;6.70;2.88;;;;;;;;;;4996392;28;20305;-66
2023/09/15 06:50:09;;;;;;;6.68;3.05;;;;;;;;;;4996363;28;20030;-66
2023/09/15 06:52:34;;;;;;;6.80;2.63;;;;;;;;;;4996492;28;20014;-66
2023/09/15 06:54:59;;;;;;;6.00;3.00;;;;;;;;;;4996346;28;20026;-66
2023/09/15 06:57:24;;;;;;;8.05;2.83;;;;;;;;;;4996574;28;20030;-66
2023/09/15 06:59:51;;;;;;;4.47;2.50;;;;;;;;;;4996507;28;20022;-66
2023/09/15 07:02:16;;;;;;;4.68;2.45;;;;;;;;;;4995904;28;20085;-67
2023/09/15 07:04:43;;;;;;;7.30;3.03;;;;;;;;;;4996062;28;20026;-66
2023/09/15 07:07:08;;;;;;;5.32;2.50;;;;;;;;;;4996324;28;20030;-68
2023/09/15 07:09:34;;;;;;;6.07;2.58;;;;;;;;;;4996351;28;20042;-66
2023/09/15 07:11:59;;;;;;;5.47;2.30;;;;;;;;;;4997544;28;20496;-66
2023/09/15 07:14:24;;;;;;;5.68;2.80;;;;;;;;;;4995727;28;20085;-66
2023/09/15 07:16:49;;;;;;;7.00;2.90;;;;;;;;;;4995946;28;20084;-67
2023/09/15 07:19:15;;;;;;;6.40;2.88;;;;;;;;;;4994954;28;20023;-66
2023/09/15 07:21:42;;;;;;;5.22;2.63;;;;;;;;;;4996012;28;20038;-67
2023/09/15 07:24:08;;;;;;;6.82;2.83;;;;;;;;;;4994569;28;20105;-66
2023/09/15 07:26:33;;;;;;;7.95;2.53;;;;;;;;;;4995611;28;20110;-67
2023/09/15 07:28:58;;;;;;;8.73;2.35;;;;;;;;;;4995805;28;20042;-67
2023/09/15 07:31:23;;;;;;;6.22;2.60;;;;;;;;;;4995670;28;20136;-67
2023/09/15 07:33:49;;;;;;;4.45;2.30;;;;;;;;;;4995432;28;20081;-67
2023/09/15 07:36:14;;;;;;;7.38;2.38;;;;;;;;;;4993604;28;20043;-67
2023/09/15 07:38:39;;;;;;;7.40;2.65;;;;;;;;;;4995478;28;20026;-67
2023/09/15 07:41:05;;;;;;;6.40;2.45;;;;;;;;;;4995522;28;20101;-67
2023/09/15 07:43:30;;;;;;;6.85;2.60;;;;;;;;;;4995711;28;20037;-67
2023/09/15 07:45:55;;;;;;;5.47;2.35;;;;;;;;;;4995251;28;20068;-67
2023/09/15 07:48:23;;;;;;;8.32;2.15;;;;;;;;;;4995426;28;20041;-67
2023/09/15 07:50:50;;;;;;;5.80;2.28;;;;;;;;;;4995401;28;20518;-67
2023/09/15 07:53:16;;;;;;;6.28;2.10;;;;;;;;;;4995274;28;20355;-67
2023/09/15 07:55:41;;;;;;;6.55;2.25;;;;;;;;;;4994071;28;20025;-68
2023/09/15 07:58:06;;;;;;;6.35;2.03;;;;;;;;;;4995234;28;20252;-67
2023/09/15 08:00:31;;;;;;;6.60;2.45;;;;;;;;;;4995124;28;20364;-67
2023/09/15 08:02:57;;;;;;;7.18;2.40;;;;;;;;;;4995021;28;20058;-67
2023/09/15 08:05:23;;;;;;;8.43;2.20;;;;;;;;;;4995354;28;20033;-67
2023/09/15 08:07:49;;;;;;;7.03;2.63;;;;;;;;;;4993741;28;20019;-67
2023/09/15 08:10:14;;;;;;;7.70;2.25;;;;;;;;;;4997894;28;20533;-67
2023/09/15 08:12:40;;;;;;;7.20;2.20;;;;;;;;;;4995249;28;20014;-67
2023/09/15 08:15:06;;;;;;;5.72;2.40;;;;;;;;;;4994871;28;20149;-66
2023/09/15 08:17:31;;;;;;;5.03;2.15;;;;;;;;;;4994638;28;20113;-68
2023/09/15 08:19:57;;;;;;;4.35;1.92;;;;;;;;;;4995039;28;20529;-68
2023/09/15 08:22:23;;;;;;;6.65;2.40;;;;;;;;;;4994694;28;20081;-68
2023/09/15 08:24:49;;;;;;;5.75;2.30;;;;;;;;;;4994608;28;20057;-68
2023/09/15 08:27:15;;;;;;;6.57;2.38;;;;;;;;;;4994555;28;20025;-67
2023/09/15 08:29:40;;;;;;;5.15;2.00;;;;;;;;;;4995080;28;20014;-68
2023/09/15 08:32:05;;;;;;;5.93;2.22;;;;;;;;;;4994535;28;20541;-68
2023/09/15 08:34:31;;;;;;;4.97;2.10;;;;;;;;;;4994417;28;20080;-68
2023/09/15 08:36:56;;;;;;;8.00;2.55;;;;;;;;;;4995077;28;20379;-68
2023/09/15 08:39:21;;;;;;;4.90;2.03;;;;;;;;;;4990535;28;20391;-69
2023/09/15 08:42:09;;;;;;;5.57;2.20;;;;;;;;;;4994785;28;20426;-67
2023/09/15 08:44:34;;;;;;;9.25;2.40;;;;;;;;;;4997062;28;20533;-68
2023/09/15 08:47:03;;;;;;;8.90;2.22;;;;;;;;;;4994274;28;20031;-68
2023/09/15 08:49:29;;;;;;;7.20;2.47;;;;;;;;;;4994216;28;20014;-68
2023/09/15 08:51:55;;;;;;;6.72;2.20;;;;;;;;;;4994561;28;20022;-69
2023/09/15 08:54:20;;;;;;;6.80;2.40;;;;;;;;;;4994194;28;20025;-69
2023/09/15 08:56:46;;;;;;;6.80;2.40;;;;;;;;;;4994339;28;20477;-68
2023/09/15 08:59:11;;;;;;;6.18;2.40;;;;;;;;;;4993987;28;20022;-68
2023/09/15 09:01:36;;;;;;;4.68;2.25;;;;;;;;;;4994165;28;20022;-68
2023/09/15 09:04:03;;;;;;;8.02;2.67;;;;;;;;;;4993762;28;20533;-65
2023/09/15 09:06:32;;;;;;;5.93;2.40;;;;;;;;;;4993760;28;20022;-65
2023/09/15 09:08:57;;;;;;;6.53;2.58;;;;;;;;;;4994284;28;20015;-65
2023/09/15 09:11:23;;;;;;;7.35;2.80;;;;;;;;;;4993765;28;20029;-66
2023/09/15 09:13:49;;;;;;;6.05;2.58;;;;;;;;;;4993707;28;20030;-65
2023/09/15 09:16:15;;;;;;;10.10;3.13;;;;;;;;;;4996276;28;20038;-65
2023/09/15 09:18:40;;;;;;;5.93;2.33;;;;;;;;;;4994155;28;20056;-65
2023/09/15 09:21:05;;;;;;;7.10;2.67;;;;;;;;;;4993880;28;20027;-68
2023/09/15 09:23:31;;;;;;;5.65;2.60;;;;;;;;;;4993481;28;20030;-68
2023/09/15 09:26:00;;;;;;;8.77;2.72;;;;;;;;;;4993487;28;20027;-68
2023/09/15 09:28:26;;;;;;;7.13;2.80;;;;;;;;;;4993819;28;20068;-68
2023/09/15 09:30:55;;;;;;;6.43;2.50;;;;;;;;;;4993481;28;20097;-68
2023/09/15 09:33:20;;;;;;;4.85;2.30;;;;;;;;;;4993099;28;20014;-67
2023/09/15 09:35:45;;;;;;;9.30;3.08;;;;;;;;;;4993653;28;20037;-67
2023/09/15 09:38:12;;;;;;;5.93;2.70;;;;;;;;;;4993737;28;20025;-67
2023/09/15 09:40:38;;;;;;;5.53;2.60;;;;;;;;;;4993237;28;20109;-67
2023/09/15 09:43:03;;;;;;;6.90;2.80;;;;;;;;;;4993791;28;20129;-67
2023/09/15 09:45:30;;;;;;;6.45;2.60;;;;;;;;;;4993065;28;20037;-67
2023/09/15 09:47:56;;;;;;;5.57;2.72;;;;;;;;;;4989365;28;20011;-67
2023/09/15 09:50:22;;;;;;;6.25;2.90;;;;;;;;;;4993484;28;20022;-67
2023/09/15 09:52:48;;;;;;;5.93;2.78;;;;;;;;;;4993345;28;20026;-68
2023/09/15 09:55:14;;;;;;;5.13;2.28;;;;;;;;;;4993100;28;20049;-67
2023/09/15 09:57:40;;;;;;;5.38;2.53;;;;;;;;;;4993327;28;20486;-68
2023/09/15 10:00:09;;;;;;;5.80;2.85;;;;;;;;;;4989015;28;20010;-68
2023/09/15 10:02:36;;;;;;;6.03;2.85;;;;;;;;;;4992776;28;20491;-68
2023/09/15 10:05:01;;;;;;;5.40;2.60;;;;;;;;;;4991677;28;20105;-68
2023/09/15 10:07:26;;;;;;;5.95;2.85;;;;;;;;;;4992804;28;20618;-68
2023/09/15 10:09:52;;;;;;;7.03;2.75;;;;;;;;;;4991586;28;20070;-68
2023/09/15 10:12:18;;;;;;;6.90;3.10;;;;;;;;;;4992674;28;20382;-67
2023/09/15 10:14:43;;;;;;;6.10;3.00;;;;;;;;;;4995775;28;20106;-68
2023/09/15 10:17:08;;;;;;;7.38;3.40;;;;;;;;;;4992144;28;20010;-67
2023/09/15 10:19:34;;;;;;;6.65;2.97;;;;;;;;;;4992912;28;20018;-67
2023/09/15 10:22:00;;;;;;;9.57;3.30;;;;;;;;;;4992782;28;20038;-67
2023/09/15 10:24:26;;;;;;;6.85;3.33;;;;;;;;;;4992486;28;20089;-68
2023/09/15 10:26:52;;;;;;;6.95;3.70;;;;;;;;;;4992759;28;20010;-67
2023/09/15 10:29:17;;;;;;;7.95;3.70;;;;;;;;;;4992465;28;20017;-67
2023/09/15 10:31:46;;;;;;;5.95;3.20;;;;;;;;;;4992468;28;20486;-66
2023/09/15 10:34:11;;;;;;;8.05;3.30;;;;;;;;;;4992695;28;20141;-66
2023/09/15 10:36:40;;;;;;;7.40;3.80;;;;;;;;;;4989483;28;20117;-67
2023/09/15 10:39:14;;;;;;;12.25;3.85;;;;;;;;;;4992360;28;20516;-68
2023/09/15 10:41:40;;;;;;;7.45;3.67;;;;;;;;;;4994275;28;20029;-67
2023/09/15 10:44:05;;;;;;;6.53;3.35;;;;;;;;;;4992814;28;20023;-67
2023/09/15 10:46:35;;;;;;;7.95;3.40;;;;;;;;;;4992270;28;20157;-66
2023/09/15 10:49:11;;;;;;;6.70;3.65;;;;;;;;;;4992711;28;20045;-67
2023/09/15 10:51:36;;;;;;;7.10;3.22;;;;;;;;;;4991952;28;20022;-68
2023/09/15 10:54:02;;;;;;;7.32;3.30;;;;;;;;;;4989502;28;20041;-67
2023/09/15 10:56:27;;;;;;;9.77;3.63;;;;;;;;;;4992598;28;20391;-68
2023/09/15 10:58:53;;;;;;;7.60;3.60;;;;;;;;;;4992582;28;20019;-67
2023/09/15 11:01:19;;;;;;;9.15;3.40;;;;;;;;;;4992441;28;20027;-67
2023/09/15 11:03:44;;;;;;;8.32;3.63;;;;;;;;;;4992096;28;20061;-67
2023/09/15 11:06:11;;;;;;;8.90;3.20;;;;;;;;;;4992096;28;20475;-67
2023/09/15 11:08:37;;;;;;;7.15;2.95;;;;;;;;;;4992139;28;20023;-68
2023/09/15 11:11:09;;;;;;;7.60;2.85;;;;;;;;;;4992338;28;20038;-67
2023/09/15 11:13:34;;;;;;;6.15;3.20;;;;;;;;;;4991469;28;20030;-67
2023/09/15 11:16:00;;;;;;;7.95;2.92;;;;;;;;;;4992304;28;20030;-67
2023/09/15 11:18:26;;;;;;;8.10;3.10;;;;;;;;;;4992437;28;20026;-69
2023/09/15 11:20:51;;;;;;;6.10;2.85;;;;;;;;;;4992270;28;20014;-67
2023/09/15 11:23:17;;;;;;;4.75;2.30;;;;;;;;;;4992731;28;20285;-68
2023/09/15 11:25:42;;;;;;;6.85;2.70;;;;;;;;;;4988891;28;20498;-67
2023/09/15 11:28:12;;;;;;;5.75;2.60;;;;;;;;;;4991865;28;20019;-69
2023/09/15 11:30:37;;;;;;;7.20;3.00;;;;;;;;;;4995839;28;20018;-68
2023/09/15 11:33:05;;;;;;;5.15;2.45;;;;;;;;;;4991998;28;20025;-67
2023/09/15 11:35:30;;;;;;;7.22;2.92;;;;;;;;;;4995439;28;20019;-67
2023/09/15 11:37:55;;;;;;;6.25;2.28;;;;;;;;;;4995541;28;20021;-68
2023/09/15 11:40:23;;;;;;;7.35;2.63;;;;;;;;;;4995583;28;20014;-67
2023/09/15 11:42:55;;;;;;;5.22;2.30;;;;;;;;;;4995432;28;20029;-67
2023/09/15 11:45:24;;;;;;;6.82;2.13;;;;;;;;;;4995411;28;20011;-67
2023/09/15 11:47:50;;;;;;;5.03;1.92;;;;;;;;;;4995124;28;20018;-67
2023/09/15 11:50:15;;;;;;;4.95;2.20;;;;;;;;;;4995451;28;20516;-67
2023/09/15 11:52:41;;;;;;;5.72;2.03;;;;;;;;;;4995206;28;20109;-68
2023/09/15 11:55:19;;;;;;;5.47;2.40;;;;;;;;;;4995185;28;20011;-68
2023/09/15 11:57:45;;;;;;;5.45;2.20;;;;;;;;;;4995415;28;20057;-68
2023/09/15 12:00:12;;;;;;;4.28;2.10;;;;;;;;;;4994802;28;20021;-72
2023/09/15 12:02:38;;;;;;;6.20;2.10;;;;;;;;;;4993482;28;20034;-71
2023/09/15 12:05:03;;;;;;;4.75;2.53;;;;;;;;;;4993729;28;20121;-72
2023/09/15 12:07:28;;;;;;;6.35;2.50;;;;;;;;;;4994618;28;20022;-72
2023/09/15 12:09:54;;;;;;;4.05;2.10;;;;;;;;;;4995095;28;20013;-72
2023/09/15 12:12:20;;;;;;;5.57;2.30;;;;;;;;;;4994689;28;20029;-73
2023/09/15 12:14:46;;;;;;;6.18;2.22;;;;;;;;;;4994909;28;20451;-73
2023/09/15 12:17:12;;;;;;;7.07;2.33;;;;;;;;;;4995095;28;20051;-72
2023/09/15 12:19:37;;;;;;;4.55;2.20;;;;;;;;;;4994904;28;20044;-72
2023/09/15 12:22:02;;;;;;;4.28;2.00;;;;;;;;;;4994170;28;20545;-69
2023/09/15 12:24:28;;;;;;;5.68;2.00;;;;;;;;;;4997330;28;20075;-70
2023/09/15 12:26:54;;;;;;;5.47;2.15;;;;;;;;;;4990382;28;20026;-70
2023/09/15 12:29:21;;;;;;;5.95;2.22;;;;;;;;;;4994132;28;20023;-70
2023/09/15 12:31:47;;;;;;;5.55;2.00;;;;;;;;;;4994677;28;20019;-70
2023/09/15 12:34:19;;;;;;;5.90;2.60;;;;;;;;;;4994494;28;20093;-69
2023/09/15 12:36:45;;;;;;;5.32;1.98;;;;;;;;;;4990767;28;20394;-70
2023/09/15 12:39:10;;;;;;;5.10;2.20;;;;;;;;;;4993429;28;20060;-70
2023/09/15 12:41:35;;;;;;;5.50;2.22;;;;;;;;;;4995291;28;20095;-71
2023/09/15 12:44:00;;;;;;;4.57;1.90;;;;;;;;;;4994388;28;20491;-71
2023/09/15 12:46:26;;;;;;;4.25;1.80;;;;;;;;;;4993624;28;20053;-70
2023/09/15 12:48:51;;;;;;;8.55;2.03;;;;;;;;;;4992694;28;20022;-71
2023/09/15 12:51:17;;;;;;;4.82;2.25;;;;;;;;;;4994097;28;20053;-70
2023/09/15 12:53:42;;;;;;;5.60;2.10;;;;;;;;;;4992845;28;20022;-70
2023/09/15 12:56:07;;;;;;;4.82;2.00;;;;;;;;;;4993926;28;20029;-70
2023/09/15 12:58:32;;;;;;;4.97;1.98;;;;;;;;;;4993757;28;20375;-70
2023/09/15 13:00:58;;;;;;;4.60;2.10;;;;;;;;;;4993677;28;20475;-71
2023/09/15 13:03:23;;;;;;;5.03;2.20;;;;;;;;;;4992618;28;20503;-70
2023/09/15 13:05:49;;;;;;;5.97;2.22;;;;;;;;;;4993422;28;20379;-70
2023/09/15 13:08:14;;;;;;;4.88;2.05;;;;;;;;;;4993478;28;20019;-69
2023/09/15 13:10:40;;;;;;;4.95;1.98;;;;;;;;;;4993335;28;20105;-72
2023/09/15 13:13:05;;;;;;;4.10;1.80;;;;;;;;;;4993557;28;20434;-72
2023/09/15 13:15:31;;;;;;;5.25;2.00;;;;;;;;;;4993126;28;20018;-71
2023/09/15 13:17:56;;;;;;;3.55;1.70;;;;;;;;;;4992482;28;20040;-71
2023/09/15 13:20:23;;;;;;;3.40;1.65;;;;;;;;;;4990348;28;20211;-71
2023/09/15 13:22:48;;;;;;;5.10;2.00;;;;;;;;;;4992639;28;20537;-72
2023/09/15 13:25:13;;;;;;;4.85;2.10;;;;;;;;;;4992678;28;20030;-72
2023/09/15 13:27:42;;;;;;;9.57;2.05;;;;;;;;;;4991390;28;20061;-73
2023/09/15 13:30:09;;;;;;;3.72;2.00;;;;;;;;;;4997855;28;20138;-72
2023/09/15 13:32:34;;;;;;;4.50;2.00;;;;;;;;;;4992951;28;20037;-72
2023/09/15 13:34:59;;;;;;;6.15;1.90;;;;;;;;;;4992590;28;20034;-72
2023/09/15 13:37:25;;;;;;;4.60;2.03;;;;;;;;;;4993059;28;20054;-72
2023/09/15 13:39:50;;;;;;;4.50;2.05;;;;;;;;;;4992551;28;20413;-72
2023/09/15 13:42:28;;;;;;;4.30;2.00;;;;;;;;;;4992712;28;20473;-72
2023/09/15 13:44:53;;;;;;;4.85;1.98;;;;;;;;;;4993390;28;20014;-72
2023/09/15 13:47:18;;;;;;;3.92;1.70;;;;;;;;;;4992897;28;20018;-73
2023/09/15 13:49:44;;;;;;;7.82;2.00;;;;;;;;;;4993353;28;20098;-71
2023/09/15 13:52:09;;;;;;;5.43;2.08;;;;;;;;;;4992625;28;20442;-68
2023/09/15 13:54:34;;;;;;;6.75;1.98;;;;;;;;;;4992863;28;20391;-68
2023/09/15 13:56:59;;;;;;;3.90;2.08;;;;;;;;;;4993146;28;20426;-68
2023/09/15 13:59:24;;;;;;;4.03;1.80;;;;;;;;;;4992833;28;20445;-68
2023/09/15 14:01:50;;;;;;;4.18;2.00;;;;;;;;;;4992246;28;20502;-67
2023/09/15 14:04:17;;;;;;;5.65;1.90;;;;;;;;;;4988923;28;20054;-66
2023/09/15 14:06:44;;;;;;;4.53;2.00;;;;;;;;;;4991478;28;20026;-68
2023/09/15 14:09:09;;;;;;;5.95;2.08;;;;;;;;;;4991305;28;20022;-70
2023/09/15 14:11:37;;;;;;;3.78;1.95;;;;;;;;;;4992371;28;20041;-71
2023/09/15 14:14:02;;;;;;;4.03;2.10;;;;;;;;;;4991730;28;20026;-71
2023/09/15 14:16:27;;;;;;;4.35;2.00;;;;;;;;;;4991913;28;20080;-70
2023/09/15 14:18:52;;;;;;;3.83;1.83;;;;;;;;;;4988873;28;20057;-71
2023/09/15 14:21:18;;;;;;;7.13;1.98;;;;;;;;;;4991437;28;20019;-71
2023/09/15 14:23:43;;;;;;;7.25;2.20;;;;;;;;;;4990659;28;20202;-72
2023/09/15 14:26:08;;;;;;;5.72;2.20;;;;;;;;;;4988689;28;20077;-72
2023/09/15 14:28:33;;;;;;;4.30;2.20;;;;;;;;;;4990529;28;20419;-71
2023/09/15 14:31:00;;;;;;;4.18;1.80;;;;;;;;;;4988306;28;20514;-72